createdAt,value
2018-04-19T00:02:49.385Z,2.07
2018-04-19T00:05:44.975Z,2.30
2018-04-19T00:08:36.244Z,1.93
2018-04-19T00:11:26.112Z,1.90
2018-04-19T00:14:16.080Z,1.90
2018-04-19T00:17:05.545Z,2.73
2018-04-19T00:19:56.740Z,1.93
2018-04-19T00:22:47.591Z,2.20
2018-04-19T00:25:40.121Z,1.90
2018-04-19T00:28:31.405Z,1.70
2018-04-19T00:31:20.489Z,2.50
2018-04-19T00:34:12.790Z,2.23
2018-04-19T00:37:05.600Z,2.10
2018-04-19T00:39:56.827Z,2.13
2018-04-19T00:42:47.841Z,2.50
2018-04-19T00:45:42.107Z,2.10
2018-04-19T00:48:34.891Z,2.13
2018-04-19T00:51:25.816Z,2.23
2018-04-19T00:54:16.819Z,2.33
2018-04-19T01:00:05.392Z,2.13
2018-04-19T01:02:55.069Z,2.33
2018-04-19T01:05:44.894Z,2.37
2018-04-19T01:08:34.558Z,1.80
2018-04-19T01:11:25.555Z,2.37
2018-04-19T01:17:19.294Z,1.77
2018-04-19T01:20:11.975Z,2.70
2018-04-19T01:23:06.362Z,2.30
2018-04-19T01:25:55.863Z,2.50
2018-04-19T01:28:48.680Z,2.23
2018-04-19T01:31:41.615Z,3.00
2018-04-19T01:34:31.925Z,2.37
2018-04-19T01:37:23.073Z,3.03
2018-04-19T01:40:16.059Z,1.87
2018-04-19T01:43:06.391Z,2.30
2018-04-19T01:45:56.313Z,2.20
2018-04-19T01:48:48.988Z,2.63
2018-04-19T01:51:40.272Z,2.13
2018-04-19T01:54:30.540Z,2.33
2018-04-19T01:57:24.184Z,1.67
2018-04-19T02:00:14.434Z,1.80
2018-04-19T02:03:08.300Z,2.23
2018-04-19T02:05:59.086Z,1.93
2018-04-19T02:08:49.081Z,2.50
2018-04-19T02:11:48.173Z,2.97
2018-04-19T02:14:41.911Z,1.77
2018-04-19T02:17:31.841Z,2.90
2018-04-19T02:20:24.023Z,2.10
2018-04-19T02:23:20.042Z,2.47
2018-04-19T02:26:11.122Z,2.30
2018-04-19T02:29:00.631Z,2.10
2018-04-19T02:31:50.835Z,2.20
2018-04-19T02:34:42.082Z,2.23
2018-04-19T02:37:36.734Z,2.80
2018-04-19T02:40:27.832Z,2.67
2018-04-19T02:43:18.506Z,2.23
2018-04-19T02:46:13.822Z,3.03
2018-04-19T02:49:03.912Z,2.13
2018-04-19T02:51:54.309Z,2.27
2018-04-19T02:54:52.672Z,2.30
2018-04-19T02:57:42.647Z,2.07
2018-04-19T03:00:44.058Z,2.43
2018-04-19T03:03:35.000Z,2.23
2018-04-19T03:06:25.349Z,1.83
2018-04-19T03:09:16.851Z,2.00
2018-04-19T03:12:13.984Z,2.23
2018-04-19T03:15:11.054Z,1.90
2018-04-19T03:18:03.250Z,2.20
2018-04-19T03:20:55.023Z,2.53
2018-04-19T03:23:46.115Z,2.23
2018-04-19T03:26:35.673Z,1.70
2018-04-19T03:29:26.535Z,2.60
2018-04-19T03:32:19.195Z,1.90
2018-04-19T03:35:09.149Z,2.50
2018-04-19T03:37:59.482Z,2.20
2018-04-19T03:40:50.194Z,2.33
2018-04-19T03:43:43.750Z,2.40
2018-04-19T03:46:33.914Z,2.13
2018-04-19T03:49:25.955Z,2.60
2018-04-19T03:52:20.753Z,3.17
2018-04-19T03:55:09.947Z,1.90
2018-04-19T03:58:00.834Z,2.13
2018-04-19T04:00:50.921Z,2.47
2018-04-19T04:03:40.869Z,2.27
2018-04-19T04:06:30.061Z,2.33
2018-04-19T04:09:22.092Z,2.40
2018-04-19T04:12:12.223Z,2.17
2018-04-19T04:15:01.374Z,2.23
2018-04-19T04:17:57.393Z,2.47
2018-04-19T04:20:53.303Z,2.23
2018-04-19T04:23:55.226Z,2.20
2018-04-19T04:26:45.855Z,2.00
2018-04-19T04:29:35.026Z,1.93
2018-04-19T04:32:28.854Z,1.63
2018-04-19T04:35:18.090Z,2.10
2018-04-19T04:38:09.093Z,2.00
2018-04-19T04:41:00.478Z,2.20
2018-04-19T04:43:51.543Z,2.40
2018-04-19T04:46:42.612Z,2.90
2018-04-19T04:49:33.680Z,2.27
2018-04-19T04:52:23.458Z,1.90
2018-04-19T04:55:13.294Z,2.30
2018-04-19T04:58:04.107Z,2.67
2018-04-19T05:00:54.854Z,3.50
2018-04-19T05:03:44.146Z,3.20
2018-04-19T05:06:33.990Z,2.63
2018-04-19T05:09:24.067Z,2.53
2018-04-19T05:12:13.962Z,3.17
2018-04-19T05:15:03.195Z,3.03
2018-04-19T05:17:55.191Z,2.80
2018-04-19T05:20:45.231Z,2.80
2018-04-19T05:23:35.133Z,3.30
2018-04-19T05:26:25.080Z,2.40
2018-04-19T05:29:14.449Z,2.87
2018-04-19T05:32:04.198Z,2.80
2018-04-19T05:34:54.208Z,2.30
2018-04-19T05:37:44.021Z,3.63
2018-04-19T05:40:33.716Z,2.60
2018-04-19T05:43:23.795Z,3.23
2018-04-19T05:46:13.711Z,2.97
2018-04-19T05:49:12.382Z,3.77
2018-04-19T05:52:01.605Z,2.77
2018-04-19T05:54:52.461Z,3.13
2018-04-19T05:57:42.183Z,5.57
2018-04-19T06:00:32.232Z,3.43
2018-04-19T06:03:22.103Z,3.10
2018-04-19T06:06:12.998Z,3.53
2018-04-19T06:09:03.122Z,4.57
2018-04-19T06:11:53.980Z,3.67
2018-04-19T06:14:44.080Z,3.57
2018-04-19T06:17:34.348Z,4.03
2018-04-19T06:20:24.503Z,3.50
2018-04-19T06:23:14.190Z,3.30
2018-04-19T06:26:03.856Z,3.77
2018-04-19T06:28:54.840Z,4.07
2018-04-19T06:31:44.198Z,3.63
2018-04-19T06:34:34.181Z,3.83
2018-04-19T06:37:24.172Z,4.07
2018-04-19T06:40:16.465Z,4.23
2018-04-19T06:43:13.666Z,3.63
2018-04-19T06:46:03.523Z,3.57
2018-04-19T06:48:53.294Z,3.80
2018-04-19T06:51:43.085Z,4.37
2018-04-19T06:54:35.230Z,4.47
2018-04-19T06:57:24.619Z,5.20
2018-04-19T07:00:14.493Z,4.13
2018-04-19T07:03:04.565Z,4.10
2018-04-19T07:05:54.320Z,4.20
2018-04-19T07:08:46.778Z,4.53
2018-04-19T07:14:30.941Z,4.10
2018-04-19T07:17:23.529Z,4.67
2018-04-19T07:20:20.495Z,4.80
2018-04-19T07:23:10.943Z,5.17
2018-04-19T07:26:00.942Z,4.57
2018-04-19T07:28:51.528Z,4.13
2018-04-19T07:31:41.388Z,4.47
2018-04-19T07:34:31.460Z,4.77
2018-04-19T07:37:21.264Z,4.87
2018-04-19T07:40:11.436Z,4.37
2018-04-19T07:43:00.989Z,3.67
2018-04-19T07:45:50.841Z,4.00
2018-04-19T07:51:54.384Z,4.20
2018-04-19T07:54:44.489Z,3.93
2018-04-19T07:57:33.764Z,4.60
2018-04-19T08:00:26.934Z,4.07
2018-04-19T08:03:16.882Z,4.87
2018-04-19T08:06:06.730Z,4.43
2018-04-19T08:08:56.833Z,5.13
2018-04-19T08:11:46.425Z,5.23
2018-04-19T08:14:42.238Z,5.03
2018-04-19T08:17:32.258Z,5.07
2018-04-19T08:20:26.053Z,4.67
2018-04-19T08:23:18.983Z,3.77
2018-04-19T08:26:11.948Z,4.20
2018-04-19T08:29:10.813Z,5.27
2018-04-19T08:35:53.464Z,5.37
2018-04-19T08:38:45.544Z,4.83
2018-04-19T08:41:39.044Z,4.90
2018-04-19T08:44:31.441Z,4.67
2018-04-19T08:47:23.538Z,4.87
2018-04-19T08:50:13.545Z,3.80
2018-04-19T08:53:08.389Z,4.77
2018-04-19T08:55:59.761Z,5.63
2018-04-19T08:58:49.913Z,5.10
2018-04-19T09:01:40.209Z,5.87
2018-04-19T09:04:31.645Z,4.47
2018-04-19T09:07:24.110Z,3.77
2018-04-19T09:10:16.862Z,5.37
2018-04-19T09:13:08.936Z,5.30
2018-04-19T09:16:00.955Z,4.53
2018-04-19T09:18:54.597Z,4.90
2018-04-19T09:21:46.340Z,4.03
2018-04-19T09:24:35.849Z,5.80
2018-04-19T09:27:27.843Z,5.27
2018-04-19T09:30:19.883Z,5.17
2018-04-19T09:33:11.814Z,4.60
2018-04-19T09:36:01.746Z,4.30
2018-04-19T09:38:52.372Z,4.57
2018-04-19T09:44:38.153Z,4.67
2018-04-19T09:47:29.148Z,5.17
2018-04-19T09:50:20.212Z,4.57
2018-04-19T09:53:14.051Z,3.47
2018-04-19T09:56:05.799Z,3.90
2018-04-19T09:58:56.530Z,4.00
2018-04-19T10:01:51.837Z,3.83
2018-04-19T10:04:44.579Z,4.43
2018-04-19T10:07:34.673Z,3.28
2018-04-19T10:10:24.730Z,3.00
2018-04-19T10:13:14.706Z,4.47
2018-04-19T10:16:05.578Z,3.12
2018-04-19T10:18:55.384Z,3.37
2018-04-19T10:21:46.413Z,3.53
2018-04-19T10:24:36.342Z,2.55
2018-04-19T10:27:26.434Z,2.78
2018-04-19T10:30:16.567Z,2.78
2018-04-19T10:33:06.641Z,2.47
2018-04-19T10:35:57.380Z,2.83
2018-04-19T10:38:48.227Z,3.85
2018-04-19T10:41:38.200Z,3.25
2018-04-19T10:44:27.806Z,3.12
2018-04-19T10:47:17.757Z,2.62
2018-04-19T10:50:07.507Z,2.17
2018-04-19T10:52:57.428Z,2.10
2018-04-19T10:55:46.964Z,2.47
2018-04-19T10:58:36.534Z,2.65
2018-04-19T11:01:26.560Z,2.72
2018-04-19T11:04:16.825Z,2.03
2018-04-19T11:07:06.815Z,2.72
2018-04-19T11:09:56.913Z,2.33
2018-04-19T11:12:46.937Z,2.42
2018-04-19T11:15:37.079Z,3.15
2018-04-19T11:18:26.744Z,3.05
2018-04-19T11:21:16.705Z,3.20
2018-04-19T11:24:06.924Z,2.65
2018-04-19T11:26:56.964Z,2.92
2018-04-19T11:29:46.436Z,2.55
2018-04-19T11:32:36.967Z,2.80
2018-04-19T11:35:27.469Z,2.78
2018-04-19T11:38:18.599Z,3.58
2018-04-19T11:41:08.716Z,3.03
2018-04-19T11:43:58.736Z,2.28
2018-04-19T11:46:56.587Z,2.75
2018-04-19T11:49:49.429Z,2.50
2018-04-19T11:52:39.825Z,3.47
2018-04-19T11:55:29.318Z,2.67
2018-04-19T11:58:18.976Z,2.42
2018-04-19T12:01:09.054Z,2.20
2018-04-19T12:03:59.428Z,2.37
2018-04-19T12:06:55.567Z,2.58
2018-04-19T12:09:45.293Z,3.33
2018-04-19T12:12:34.851Z,2.03
2018-04-19T12:15:24.785Z,2.37
2018-04-19T12:18:14.553Z,1.80
2018-04-19T12:21:04.359Z,2.28
2018-04-19T12:23:53.680Z,2.42
2018-04-19T12:26:43.781Z,2.00
2018-04-19T12:29:33.811Z,1.80
2018-04-19T12:32:24.000Z,1.75
2018-04-19T12:35:14.184Z,2.17
2018-04-19T12:38:04.319Z,1.70
2018-04-19T12:40:54.374Z,2.17
2018-04-19T12:43:44.049Z,1.92
2018-04-19T12:46:34.175Z,2.12
2018-04-19T12:49:24.330Z,2.33
2018-04-19T12:52:14.826Z,1.70
2018-04-19T12:55:04.480Z,1.98
2018-04-19T12:57:55.402Z,1.75
2018-04-19T13:00:46.331Z,2.00
2018-04-19T13:03:40.553Z,1.48
2018-04-19T13:06:36.379Z,2.12
2018-04-19T13:09:26.606Z,1.85
2018-04-19T13:12:16.439Z,2.53
2018-04-19T13:15:06.478Z,1.50
2018-04-19T13:17:58.808Z,1.75
2018-04-19T13:20:49.507Z,1.85
2018-04-19T13:23:40.031Z,2.00
2018-04-19T13:26:36.931Z,1.98
2018-04-19T13:29:26.950Z,1.83
2018-04-19T13:32:24.413Z,1.90
2018-04-19T13:35:14.509Z,2.55
2018-04-19T13:38:04.633Z,1.92
2018-04-19T13:40:55.271Z,2.03
2018-04-19T13:43:45.162Z,2.37
2018-04-19T13:46:36.920Z,2.65
2018-04-19T13:49:29.112Z,2.15
2018-04-19T13:52:19.844Z,2.78
2018-04-19T13:55:16.679Z,1.83
2018-04-19T14:07:59.441Z,2.05
2018-04-19T14:10:49.696Z,2.90
2018-04-19T14:13:39.338Z,3.03
2018-04-19T14:16:29.352Z,1.80
2018-04-19T14:19:28.848Z,2.62
2018-04-19T14:22:20.109Z,1.73
2018-04-19T14:25:10.483Z,1.55
2018-04-19T14:28:00.639Z,2.65
2018-04-19T14:30:50.056Z,2.28
2018-04-19T14:33:39.870Z,2.42
2018-04-19T14:36:29.771Z,2.33
2018-04-19T14:39:18.940Z,2.22
2018-04-19T14:42:09.074Z,2.10
2018-04-19T14:44:59.236Z,2.00
2018-04-19T14:47:49.153Z,2.65
2018-04-19T14:50:39.313Z,1.70
2018-04-19T14:53:28.708Z,2.28
2018-04-19T14:56:18.965Z,2.78
2018-04-19T14:59:08.437Z,1.98
2018-04-19T15:01:58.404Z,1.67
2018-04-19T15:04:48.359Z,2.03
2018-04-19T15:07:38.235Z,1.90
2018-04-19T15:10:27.861Z,1.80
2018-04-19T15:13:17.446Z,1.90
2018-04-19T15:16:07.223Z,1.55
2018-04-19T15:18:57.045Z,2.10
2018-04-19T15:21:47.397Z,1.60
2018-04-19T15:24:37.321Z,1.83
2018-04-19T15:27:27.102Z,2.00
2018-04-19T15:30:17.250Z,2.58
2018-04-19T15:33:06.973Z,1.48
2018-04-19T15:35:57.134Z,2.12
2018-04-19T15:38:48.050Z,1.52
2018-04-19T15:41:38.133Z,1.95
2018-04-19T15:44:27.963Z,1.90
2018-04-19T15:47:17.679Z,2.03
2018-04-19T15:50:07.592Z,1.60
2018-04-19T15:52:57.560Z,1.80
2018-04-19T15:55:47.115Z,1.50
2018-04-19T15:58:37.039Z,1.73
2018-04-19T16:01:26.505Z,1.85
2018-04-19T16:04:16.856Z,2.40
2018-04-19T16:07:06.496Z,2.10
2018-04-19T16:09:57.205Z,1.85
2018-04-19T16:12:47.144Z,1.92
2018-04-19T16:15:37.305Z,1.87
2018-04-19T16:18:31.123Z,3.72
2018-04-19T16:21:21.193Z,1.73
2018-04-19T16:24:10.542Z,1.92
2018-04-19T16:27:00.381Z,1.90
2018-04-19T16:29:51.364Z,2.08
2018-04-19T16:32:42.382Z,2.90
2018-04-19T16:35:31.998Z,1.90
2018-04-19T16:38:21.911Z,2.40
2018-04-19T16:41:11.658Z,2.28
2018-04-19T16:44:01.266Z,2.05
2018-04-19T16:46:58.565Z,1.95
2018-04-19T16:49:48.396Z,2.33
2018-04-19T16:52:38.152Z,2.05
2018-04-19T16:55:27.897Z,2.20
2018-04-19T16:58:17.171Z,2.22
2018-04-19T17:01:06.940Z,2.97
2018-04-19T17:03:56.946Z,2.03
2018-04-19T17:06:47.056Z,1.85
2018-04-19T17:09:36.942Z,2.00
2018-04-19T17:12:27.195Z,2.05
2018-04-19T17:15:17.296Z,2.15
2018-04-19T17:18:06.573Z,2.45
2018-04-19T17:20:56.660Z,2.30
2018-04-19T17:23:46.909Z,2.50
2018-04-19T17:26:36.739Z,2.58
2018-04-19T17:29:26.680Z,2.00
2018-04-19T17:35:30.802Z,2.42
2018-04-19T17:38:20.622Z,2.40
2018-04-19T17:41:10.738Z,2.75
2018-04-19T17:44:06.356Z,2.12
2018-04-19T17:46:56.199Z,2.20
2018-04-19T17:49:51.020Z,2.55
2018-04-19T17:52:40.729Z,2.20
2018-04-19T17:55:30.716Z,2.62
2018-04-19T17:58:20.661Z,2.50
2018-04-19T18:01:10.615Z,2.10
2018-04-19T18:04:00.517Z,2.25
2018-04-19T18:06:50.255Z,2.85
2018-04-19T18:09:40.114Z,2.55
2018-04-19T18:12:29.866Z,2.50
2018-04-19T18:15:19.250Z,2.35
2018-04-19T18:18:09.342Z,2.10
2018-04-19T18:20:59.168Z,2.20
2018-04-19T18:23:48.503Z,2.17
2018-04-19T18:26:38.481Z,3.33
2018-04-19T18:29:28.569Z,2.03
2018-04-19T18:32:17.689Z,2.20
2018-04-19T18:35:06.931Z,2.20
2018-04-19T18:37:58.527Z,2.92
2018-04-19T18:40:48.001Z,2.65
2018-04-19T18:43:37.981Z,2.35
2018-04-19T18:46:28.046Z,2.28
2018-04-19T18:49:18.027Z,2.30
2018-04-19T18:52:08.674Z,2.70
2018-04-19T18:54:58.806Z,2.53
2018-04-19T18:57:48.939Z,2.50
2018-04-19T19:00:38.196Z,2.65
2018-04-19T19:03:27.952Z,2.55
2018-04-19T19:06:17.668Z,2.62
2018-04-19T19:09:07.592Z,2.37
2018-04-19T19:11:57.552Z,1.83
2018-04-19T19:18:02.324Z,2.53
2018-04-19T19:20:52.406Z,2.15
2018-04-19T19:23:42.420Z,2.50
2018-04-19T19:26:32.429Z,2.30
2018-04-19T19:29:22.376Z,2.40
2018-04-19T19:32:12.408Z,2.58
2018-04-19T19:35:01.808Z,2.75
2018-04-19T19:37:51.975Z,2.53
2018-04-19T19:40:41.296Z,2.65
2018-04-19T19:43:31.464Z,2.60
2018-04-19T19:46:21.560Z,2.55
2018-04-19T19:49:10.760Z,2.60
2018-04-19T19:52:00.094Z,3.03
2018-04-19T19:54:49.344Z,2.20
2018-04-19T19:57:38.504Z,2.40
2018-04-19T20:00:28.079Z,3.00
2018-04-19T20:03:18.398Z,2.60
2018-04-19T20:06:08.237Z,2.50
2018-04-19T20:08:58.279Z,2.37
2018-04-19T20:11:48.291Z,2.35
2018-04-19T20:14:38.317Z,2.87
2018-04-19T20:17:28.190Z,2.30
2018-04-19T20:20:18.281Z,2.92
2018-04-19T20:23:08.196Z,2.75
2018-04-19T20:25:58.298Z,2.50
2018-04-19T20:28:48.828Z,2.85
2018-04-19T20:31:38.152Z,2.67
2018-04-19T20:34:27.325Z,3.03
2018-04-19T20:37:17.216Z,2.45
2018-04-19T20:40:07.168Z,2.72
2018-04-19T20:42:57.035Z,2.78
2018-04-19T20:45:47.008Z,3.35
2018-04-19T20:48:36.903Z,2.85
2018-04-19T20:51:27.010Z,3.33
2018-04-19T20:54:16.835Z,3.10
2018-04-19T20:57:06.080Z,2.72
2018-04-19T20:59:56.093Z,3.42
2018-04-19T21:02:46.178Z,2.90
2018-04-19T21:05:36.352Z,3.17
2018-04-19T21:08:26.500Z,3.60
2018-04-19T21:11:16.032Z,3.28
2018-04-19T21:14:05.534Z,2.95
2018-04-19T21:16:55.502Z,2.90
2018-04-19T21:19:45.407Z,2.90
2018-04-19T21:22:35.353Z,3.10
2018-04-19T21:25:25.195Z,2.97
2018-04-19T21:28:14.940Z,3.55
2018-04-19T21:31:04.698Z,3.08
2018-04-19T21:33:54.413Z,3.37
2018-04-19T21:36:44.506Z,2.70
2018-04-19T21:39:34.508Z,4.22
2018-04-19T21:42:23.760Z,3.00
2018-04-19T21:45:13.905Z,3.08
2018-04-19T21:48:03.176Z,3.45
2018-04-19T21:50:53.214Z,2.87
2018-04-19T21:53:42.772Z,2.90
2018-04-19T21:56:32.995Z,3.35
2018-04-19T21:59:23.278Z,3.03
2018-04-19T22:02:13.120Z,3.67
2018-04-19T22:05:03.086Z,3.20
2018-04-19T22:07:52.943Z,3.10
2018-04-19T22:10:42.875Z,2.50
2018-04-19T22:13:32.177Z,2.97
2018-04-19T22:16:21.434Z,3.03
2018-04-19T22:19:10.585Z,3.10
2018-04-19T22:22:00.758Z,3.10
2018-04-19T22:24:50.591Z,2.83
2018-04-19T22:27:40.743Z,3.47
2018-04-19T22:30:42.619Z,3.55
2018-04-19T22:33:34.329Z,4.50
2018-04-19T22:36:24.352Z,3.90
2018-04-19T22:39:14.410Z,3.33
2018-04-19T22:42:04.244Z,3.83
2018-04-19T22:44:54.236Z,3.10
2018-04-19T22:47:44.091Z,2.80
2018-04-19T22:50:34.240Z,3.40
2018-04-19T22:53:23.593Z,3.05
2018-04-19T22:56:13.449Z,3.20
2018-04-19T22:59:03.102Z,3.10
2018-04-19T23:01:54.098Z,3.83
2018-04-19T23:04:43.763Z,3.58
2018-04-19T23:07:33.591Z,3.03
2018-04-19T23:10:23.419Z,3.33
2018-04-19T23:13:13.399Z,3.43
2018-04-19T23:16:03.712Z,3.50
2018-04-19T23:18:53.502Z,2.87
2018-04-19T23:21:43.097Z,3.10
2018-04-19T23:24:32.277Z,3.37
2018-04-19T23:27:21.916Z,3.03
2018-04-19T23:30:12.725Z,3.33
2018-04-19T23:33:02.786Z,3.27
2018-04-19T23:35:52.589Z,3.40
2018-04-19T23:38:42.462Z,3.05
2018-04-19T23:41:32.237Z,4.50
2018-04-19T23:44:22.193Z,3.20
2018-04-19T23:47:12.248Z,3.10
2018-04-19T23:50:03.879Z,3.53
2018-04-19T23:52:55.541Z,3.00
2018-04-19T23:55:45.957Z,3.03
2018-04-19T23:58:35.907Z,4.00
